Historique des mesures à Cassis (13260), France
Quotidien Résumé Janvier 16, 2018 Unités:  Métrique    US   Métrique/US
« Précédent (Jour)
Suivant (Jour) »
Quotidien Hebdomadaire Mensuel Annuel Période au choix
  Maximum: Minimum: Moyenne:
Température: TemperatureC °C 11.4 °C 12.6 °C
Point de rosée: DewpointC °C 6.6 °C 8.2 °C
Humidité: Humidity % 66 % 70 %
Vitesse du vent: 0 km/h 0 km/h 14.5 km/h
Rafales: 0 km/h - -
Vent:- - SW
Pression: PressurehPa hPa 1008.4 hPa -
Précipitations: 0.0 mm    
Historical Graphs
 
 
Mesures pour : Janvier 16, 2018
Heure Temperature Point de rosée Pression Vent Vitesse du vent Rafales Humidité Pluie (par heure) Conditions
TemperatureC °C DewpointC °C PressurehPa hPa Calm     Humidity % HourlyPrecipMM mm SoftwareType W/m2
00:12 11.8 °C 7.5 °C 1016.5 hPa Calm   21.6 km/h 75 % 0.0 mm open2300-1.11 W/m2
01:12 11.9 °C 7.6 °C 1015.5 hPa SW 25.4 km/h 25.4 km/h 75 % 0.0 mm open2300-1.11 W/m2
02:12 12.1 °C 8.0 °C 1014.8 hPa Calm   6.4 km/h 76 % 0.0 mm open2300-1.11 W/m2
03:12 12.0 °C 7.5 °C 1014.1 hPa West 11.6 km/h 11.6 km/h 74 % 0.0 mm open2300-1.11 W/m2
04:12 12.1 °C 6.6 °C 1013.4 hPa WNW 10.3 km/h 15.6 km/h 69 % 0.0 mm open2300-1.11 W/m2
05:12 12.2 °C 7.1 °C 1013.1 hPa West 16.9 km/h 16.9 km/h 71 % 0.0 mm open2300-1.11 W/m2
06:12 11.4 °C 7.5 °C 1012.8 hPa West 4.7 km/h 10.3 km/h 77 % 0.0 mm open2300-1.11 W/m2
07:12 11.5 °C 8.0 °C 1012.4 hPa Calm   8 km/h 79 % 0.0 mm open2300-1.11 W/m2
08:12 12.3 °C 8.8 °C 1012.4 hPa North 4.7 km/h 17.4 km/h 79 % 0.0 mm open2300-1.11 W/m2
09:12 12.8 °C 9.0 °C 1012.4 hPa Calm     78 % 0.0 mm open2300-1.11 W/m2
10:12 13.2 °C 9.6 °C 1012.8 hPa Calm   19.2 km/h 79 % 0.0 mm open2300-1.11 W/m2
11:12 13.9 °C 9.9 °C 1012.8 hPa WNW 24.8 km/h 49.2 km/h 77 % 0.0 mm open2300-1.11 W/m2
12:12 14.8 °C 10.0 °C 1012.4 hPa West 23 km/h 23 km/h 73 % 0.0 mm open2300-1.11 W/m2
14:12 15.4 °C 9.1 °C 1010.7 hPa WNW 35.2 km/h 69.4 km/h 66 % 0.0 mm open2300-1.11 W/m2
16:12 14.9 °C 9.5 °C 1010.4 hPa WNW 5.6 km/h 27.2 km/h 70 % 0.0 mm open2300-1.11 W/m2
18:12 14.1 °C 9.5 °C 1010.0 hPa NNE 28.5 km/h 28.5 km/h 74 % 0.0 mm open2300-1.11 W/m2
20:12 14.4 °C 9.4 °C 1009.0 hPa North 16.9 km/h 44.6 km/h 72 % 0.0 mm open2300-1.11 W/m2
21:12 14.5 °C 9.5 °C 1009.4 hPa NW 27.2 km/h 37 km/h 72 % 0.0 mm open2300-1.11 W/m2
22:12 14.6 °C 9.6 °C 1009.0 hPa WNW 31.4 km/h 31.4 km/h 72 % 0.0 mm open2300-1.11 W/m2
23:12 14.5 °C 9.3 °C 1008.4 hPa WNW 37 km/h 44.1 km/h 71 % 0.0 mm open2300-1.11 W/m2
Observations météo à CASSIS
WU-History script by Weather Underground - 1 mb